Time;durP1;ratioP1;P1;durP2;ratioP2;P2;SDS_P1;SDS_P2;PMS_P1;PMS_P2;Temp;Humidity;BMP_temperature;BMP_pressure;BME280_temperature;BME280_humidity;BME280_pressure;Samples;Min_cycle;Max_cycle;Signal;HPM_P1;HPM_P2
2021/12/29 00:00:12;;;;;;;383.90;34.45;;;;;;;6.91;84.32;95898.69;5114881;28;20031;-67
2021/12/29 00:02:39;;;;;;;348.98;34.45;;;;;;;6.92;84.33;95896.03;5114887;27;20496;-66
2021/12/29 00:05:05;;;;;;;200.20;30.75;;;;;;;6.90;84.46;95903.06;5114044;28;20056;-63
2021/12/29 00:07:31;;;;;;;192.77;28.45;;;;;;;6.92;84.23;95902.97;5114664;28;20024;-64
2021/12/29 00:10:00;;;;;;;107.10;24.00;;;;;;;6.90;84.26;95910.00;5114738;28;20035;-65
2021/12/29 00:12:26;;;;;;;198.35;23.67;;;;;;;6.86;84.30;95913.59;5114636;27;20024;-63
2021/12/29 00:14:53;;;;;;;288.92;23.60;;;;;;;6.84;84.16;95911.06;5114569;28;20034;-65
2021/12/29 00:17:19;;;;;;;445.17;27.83;;;;;;;6.81;83.88;95918.97;5114692;28;20019;-70
2021/12/29 00:19:44;;;;;;;172.30;21.35;;;;;;;6.75;83.76;95911.34;5114643;28;20362;-67
2021/12/29 00:22:10;;;;;;;687.33;33.70;;;;;;;6.76;83.35;95913.91;5114490;28;20035;-66
2021/12/29 00:24:38;;;;;;;605.55;31.38;;;;;;;6.75;83.67;95904.41;5114431;28;20054;-67
2021/12/29 00:27:05;;;;;;;282.13;23.13;;;;;;;6.75;82.97;95906.16;5114493;28;20096;-66
2021/12/29 00:29:31;;;;;;;123.38;19.00;;;;;;;6.75;83.16;95906.16;5114452;28;20165;-67
2021/12/29 00:31:56;;;;;;;26.17;14.95;;;;;;;6.73;83.15;95902.75;5114501;28;20115;-65
2021/12/29 00:34:22;;;;;;;21.00;14.25;;;;;;;6.76;83.29;95902.66;5114235;28;20476;-70
2021/12/29 00:36:48;;;;;;;22.70;14.65;;;;;;;6.78;82.97;95909.50;5114234;28;20028;-65
2021/12/29 00:39:13;;;;;;;20.25;13.63;;;;;;;6.78;82.96;95895.66;5114244;28;20465;-67
2021/12/29 00:41:39;;;;;;;18.08;12.65;;;;;;;6.73;83.10;95893.22;5114279;28;20031;-67
2021/12/29 00:44:07;;;;;;;16.77;10.95;;;;;;;6.77;83.00;95899.16;5114137;28;20062;-67
2021/12/29 00:46:36;;;;;;;16.95;11.77;;;;;;;6.74;82.88;95899.28;5114085;28;20027;-64
2021/12/29 00:49:02;;;;;;;17.83;11.45;;;;;;;6.69;82.88;95894.22;5114024;28;20015;-67
2021/12/29 00:51:27;;;;;;;25.10;10.20;;;;;;;6.65;82.88;95896.06;5114221;28;20488;-67
2021/12/29 00:53:53;;;;;;;22.73;10.27;;;;;;;6.68;82.88;95898.56;5114076;28;20103;-68
2021/12/29 00:56:19;;;;;;;37.40;11.07;;;;;;;6.72;82.78;95894.13;5114005;28;20019;-63
2021/12/29 00:58:44;;;;;;;20.05;10.70;;;;;;;6.63;83.05;95899.59;5113817;28;20047;-65
2021/12/29 01:01:10;;;;;;;17.92;11.30;;;;;;;6.60;83.41;95894.50;5113898;28;20031;-66
2021/12/29 01:03:38;;;;;;;22.40;11.35;;;;;;;6.51;83.55;95886.13;5113872;28;20032;-65
2021/12/29 01:06:03;;;;;;;19.70;11.07;;;;;;;6.50;83.44;95875.78;5113821;28;20435;-68
2021/12/29 01:08:29;;;;;;;25.23;11.30;;;;;;;6.49;83.74;95869.72;5113900;28;20031;-65
2021/12/29 01:10:55;;;;;;;71.72;12.38;;;;;;;6.51;83.75;95872.28;5113778;28;20019;-65
2021/12/29 01:13:29;;;;;;;23.63;11.68;;;;;;;6.56;83.53;95878.16;5113490;28;20019;-69
2021/12/29 01:18:38;;;;;;;38.00;11.95;;;;;;;6.62;83.16;95882.31;5113670;28;20366;-67
2021/12/29 01:21:05;;;;;;;32.90;11.38;;;;;;;6.64;83.32;95883.97;5113621;28;20034;-68
2021/12/29 01:23:31;;;;;;;68.93;15.35;;;;;;;6.63;82.73;95884.88;5113478;28;20020;-69
2021/12/29 01:25:56;;;;;;;138.48;16.88;;;;;;;6.54;83.16;95882.56;5113592;28;20023;-67
2021/12/29 01:28:22;;;;;;;175.50;18.50;;;;;;;6.57;83.03;95877.28;5113557;28;20020;-70
2021/12/29 01:30:48;;;;;;;112.50;14.73;;;;;;;6.55;83.22;95881.66;5113510;28;20020;-66
2021/12/29 01:33:13;;;;;;;280.92;19.92;;;;;;;6.48;83.42;95883.63;5113492;28;20427;-67
2021/12/29 01:35:40;;;;;;;335.50;22.75;;;;;;;6.49;83.45;95876.66;5113505;28;20031;-64
2021/12/29 01:38:08;;;;;;;160.80;15.60;;;;;;;6.49;83.64;95876.66;5113461;28;20047;-65
2021/12/29 01:40:36;;;;;;;208.73;15.52;;;;;;;6.51;83.38;95873.13;5113384;28;20023;-67
2021/12/29 01:43:04;;;;;;;40.22;8.32;;;;;;;6.52;83.00;95867.03;5113638;28;20027;-66
2021/12/29 01:45:30;;;;;;;18.38;8.38;;;;;;;6.53;83.00;95871.31;5113440;28;20020;-68
2021/12/29 01:47:56;;;;;;;11.27;7.95;;;;;;;6.51;83.06;95867.06;5113290;28;20377;-69
2021/12/29 01:50:22;;;;;;;8.70;7.65;;;;;;;6.53;82.82;95870.47;5113250;28;20024;-62
2021/12/29 01:52:55;;;;;;;7.88;6.38;;;;;;;6.57;82.70;95879.88;5113307;28;20024;-65
2021/12/29 01:55:25;;;;;;;10.50;7.40;;;;;;;6.57;82.58;95875.50;5113448;28;20553;-67
2021/12/29 01:57:51;;;;;;;8.50;6.35;;;;;;;6.58;82.49;95873.75;5113305;28;20063;-63
2021/12/29 02:00:21;;;;;;;7.03;6.20;;;;;;;6.60;82.48;95871.97;5113197;28;20378;-67
2021/12/29 02:02:47;;;;;;;7.53;5.35;;;;;;;6.59;82.27;95866.81;5113316;28;20096;-67
2021/12/29 02:05:13;;;;;;;6.57;4.97;;;;;;;6.61;82.53;95875.41;5113168;28;20047;-67
2021/12/29 02:07:40;;;;;;;5.50;4.65;;;;;;;6.62;82.23;95872.75;5113227;28;20446;-71
2021/12/29 02:10:07;;;;;;;4.00;3.60;;;;;;;6.59;82.40;95870.25;5113180;28;20023;-64
2021/12/29 02:12:33;;;;;;;15.00;4.47;;;;;;;6.56;82.35;95868.63;5113210;28;20019;-68
2021/12/29 02:14:59;;;;;;;6.70;4.22;;;;;;;6.58;82.39;95871.16;5113028;28;20427;-67
2021/12/29 02:17:24;;;;;;;6.15;5.22;;;;;;;6.57;82.10;95870.31;5113065;28;20065;-65
2021/12/29 02:19:51;;;;;;;7.82;5.03;;;;;;;6.60;82.56;95871.97;5113212;28;20465;-66
2021/12/29 02:24:53;;;;;;;10.60;6.75;;;;;;;6.52;82.44;95876.56;5112851;28;20130;-65
2021/12/29 02:27:20;;;;;;;9.18;6.13;;;;;;;6.53;82.84;95867.88;5113069;28;20048;-67
2021/12/29 02:29:47;;;;;;;8.52;6.70;;;;;;;6.52;82.94;95867.03;5115326;28;20015;-64
2021/12/29 02:32:14;;;;;;;10.52;6.43;;;;;;;6.52;83.02;95861.81;5116786;28;20072;-70
2021/12/29 02:34:40;;;;;;;7.82;5.88;;;;;;;6.48;82.84;95852.44;5116631;28;20512;-64
2021/12/29 02:37:07;;;;;;;9.20;6.55;;;;;;;6.41;83.25;95850.94;5116631;28;20020;-65
2021/12/29 02:39:37;;;;;;;6.57;5.35;;;;;;;6.30;83.47;95840.88;5116634;28;20024;-69
2021/12/29 02:42:05;;;;;;;7.32;5.50;;;;;;;6.20;83.95;95835.13;5115387;28;20031;-67
2021/12/29 02:44:39;;;;;;;6.55;5.18;;;;;;;6.11;84.43;95835.44;5116522;28;20019;-66
2021/12/29 02:47:05;;;;;;;7.97;5.45;;;;;;;6.05;84.73;95833.88;5116430;28;20027;-68
2021/12/29 02:49:31;;;;;;;10.07;5.80;;;;;;;5.98;84.66;95829.72;5116357;28;20165;-65
2021/12/29 02:51:56;;;;;;;9.77;5.80;;;;;;;5.93;85.01;95838.50;5116390;28;20389;-64
2021/12/29 02:54:22;;;;;;;9.70;6.45;;;;;;;5.94;85.41;95836.78;5116245;28;20035;-62
2021/12/29 02:56:52;;;;;;;8.90;5.88;;;;;;;5.98;85.24;95834.91;5116352;28;20173;-70
2021/12/29 02:59:17;;;;;;;11.30;6.70;;;;;;;5.99;85.17;95827.09;5116235;28;20093;-69
2021/12/29 03:01:43;;;;;;;8.15;5.72;;;;;;;5.92;85.40;95846.34;5116182;28;20541;-68
2021/12/29 03:04:09;;;;;;;8.15;5.97;;;;;;;5.95;85.43;95846.25;5116203;28;20378;-69
2021/12/29 03:06:34;;;;;;;6.63;5.28;;;;;;;5.96;85.03;95842.75;5116107;27;20472;-65
2021/12/29 03:09:03;;;;;;;8.43;5.50;;;;;;;5.96;85.33;95840.16;5116068;28;20080;-62
2021/12/29 03:11:28;;;;;;;8.88;6.30;;;;;;;6.00;85.13;95840.91;5115992;28;20020;-69
2021/12/29 03:13:54;;;;;;;8.60;6.32;;;;;;;5.93;85.29;95838.50;5115856;28;20057;-66
2021/12/29 03:16:20;;;;;;;7.97;5.88;;;;;;;5.91;85.48;95831.69;5115893;28;20036;-62
2021/12/29 03:18:46;;;;;;;7.32;5.05;;;;;;;5.94;85.44;95837.59;5115845;27;20023;-69
2021/12/29 03:21:12;;;;;;;7.68;5.90;;;;;;;5.93;85.36;95835.09;5115960;28;20107;-65
2021/12/29 03:23:38;;;;;;;7.15;5.13;;;;;;;5.88;85.46;95835.22;5115531;28;20035;-62
2021/12/29 03:26:06;;;;;;;6.43;4.50;;;;;;;5.91;85.50;95836.88;5115752;28;20088;-67
2021/12/29 03:28:33;;;;;;;5.25;4.18;;;;;;;5.92;85.27;95833.38;5115610;28;20038;-65
2021/12/29 03:30:59;;;;;;;4.90;3.88;;;;;;;5.98;85.17;95833.19;5115558;28;20026;-69
2021/12/29 03:33:28;;;;;;;7.13;4.55;;;;;;;6.02;85.18;95831.34;5115549;28;20027;-67
2021/12/29 03:36:01;;;;;;;5.05;3.58;;;;;;;6.03;85.14;95839.09;5115567;28;20020;-65
2021/12/29 03:38:29;;;;;;;6.40;4.38;;;;;;;6.05;84.97;95842.50;5115503;28;20036;-65
2021/12/29 03:40:57;;;;;;;5.93;4.40;;;;;;;6.03;84.90;95848.63;5115111;28;20102;-67
2021/12/29 03:43:24;;;;;;;7.20;5.32;;;;;;;6.04;84.93;95851.19;5115374;27;20032;-63
2021/12/29 03:45:52;;;;;;;7.45;4.75;;;;;;;6.07;84.72;95851.09;5115362;28;20508;-65
2021/12/29 03:48:20;;;;;;;6.70;4.78;;;;;;;6.10;84.54;95842.38;5115317;28;20031;-64
2021/12/29 03:50:49;;;;;;;9.68;6.28;;;;;;;6.11;84.37;95841.47;5115324;28;20068;-65
2021/12/29 03:53:16;;;;;;;15.07;7.50;;;;;;;6.14;84.28;95849.16;5115206;28;20456;-63
2021/12/29 03:55:44;;;;;;;14.43;7.88;;;;;;;6.17;84.01;95850.84;5115236;28;20118;-62
2021/12/29 03:58:10;;;;;;;9.18;5.97;;;;;;;6.22;83.82;95856.72;5115167;28;20359;-64
2021/12/29 04:00:37;;;;;;;8.90;5.97;;;;;;;6.24;83.77;95856.66;5115094;28;20118;-65
2021/12/29 04:03:04;;;;;;;8.57;6.15;;;;;;;6.13;83.94;95849.19;5114928;28;20024;-68
2021/12/29 04:05:30;;;;;;;11.25;6.32;;;;;;;6.10;84.42;95850.16;5114851;28;20032;-67
2021/12/29 04:07:56;;;;;;;64.78;9.25;;;;;;;6.14;83.92;95843.13;5114887;28;20030;-68
2021/12/29 04:10:22;;;;;;;12.52;8.20;;;;;;;6.18;83.85;95842.13;5114810;28;20418;-68
2021/12/29 04:12:48;;;;;;;11.63;7.78;;;;;;;6.16;84.08;95836.97;5114886;28;20035;-61
2021/12/29 04:15:15;;;;;;;101.30;12.48;;;;;;;6.19;84.09;95834.28;5114695;28;20035;-68
2021/12/29 04:17:43;;;;;;;234.13;12.85;;;;;;;6.22;83.68;95825.53;5114700;28;20523;-65
2021/12/29 04:22:59;;;;;;;6.07;4.13;;;;;;;6.12;83.58;95829.34;5114947;28;20377;-65
2021/12/29 04:25:26;;;;;;;7.05;4.28;;;;;;;6.13;83.64;95820.63;5114270;28;20047;-64
2021/12/29 04:27:56;;;;;;;31.92;6.43;;;;;;;6.10;83.96;95825.94;5114465;28;20027;-70
2021/12/29 04:30:24;;;;;;;8.90;5.07;;;;;;;6.07;84.20;95829.47;5114434;28;20397;-67
2021/12/29 04:32:52;;;;;;;6.70;5.40;;;;;;;6.13;84.07;95831.03;5114502;28;20439;-69
2021/12/29 04:35:20;;;;;;;24.83;6.13;;;;;;;6.11;84.07;95830.25;5114359;28;20024;-64
2021/12/29 04:37:46;;;;;;;89.10;9.35;;;;;;;6.11;84.17;95825.06;5114328;28;20028;-64
2021/12/29 04:40:12;;;;;;;7.30;4.80;;;;;;;6.11;84.00;95835.44;5114437;28;20080;-70
2021/12/29 04:42:37;;;;;;;6.63;4.25;;;;;;;6.11;84.06;95830.25;5114328;28;20027;-65
2021/12/29 04:45:04;;;;;;;8.25;5.63;;;;;;;6.11;84.07;95825.88;5114116;28;20032;-62
2021/12/29 04:47:30;;;;;;;11.63;4.72;;;;;;;6.10;84.06;95821.59;5114077;28;20019;-70
2021/12/29 04:50:02;;;;;;;7.13;4.43;;;;;;;6.10;83.82;95815.53;5114049;28;20377;-65
2021/12/29 04:52:29;;;;;;;5.47;4.35;;;;;;;6.00;84.19;95818.41;5113402;28;20035;-70
2021/12/29 04:54:55;;;;;;;12.82;4.85;;;;;;;5.90;84.70;95822.19;5113813;28;20016;-70
2021/12/29 04:57:21;;;;;;;8.27;5.18;;;;;;;5.84;84.97;95814.59;5114064;28;20027;-64
2021/12/29 04:59:47;;;;;;;12.65;5.60;;;;;;;5.78;85.21;95818.22;5114011;28;20062;-68
2021/12/29 05:02:13;;;;;;;11.20;5.70;;;;;;;5.82;85.38;95814.63;5114021;28;20563;-66
2021/12/29 05:04:46;;;;;;;14.18;5.82;;;;;;;5.82;85.46;95809.44;5113876;28;20020;-62
2021/12/29 05:09:58;;;;;;;19.60;4.68;;;;;;;5.71;85.81;95811.50;5114127;28;20484;-63
2021/12/29 05:12:23;;;;;;;23.38;5.25;;;;;;;5.57;86.50;95815.38;5113821;28;20022;-70
2021/12/29 05:14:49;;;;;;;24.02;5.45;;;;;;;5.53;86.46;95806.84;5113705;28;20031;-65
2021/12/29 05:17:14;;;;;;;20.40;5.50;;;;;;;5.49;86.83;95809.56;5113764;28;20135;-68
2021/12/29 05:19:40;;;;;;;22.95;6.72;;;;;;;5.50;87.00;95803.47;5113675;28;20027;-65
2021/12/29 05:22:06;;;;;;;33.47;5.85;;;;;;;5.47;86.97;95808.75;5113569;28;20020;-64
2021/12/29 05:24:31;;;;;;;18.40;5.93;;;;;;;5.46;87.21;95807.91;5113442;28;20055;-69
2021/12/29 05:26:58;;;;;;;29.38;6.18;;;;;;;5.48;87.42;95802.69;5113527;28;20024;-66
2021/12/29 05:29:24;;;;;;;69.05;7.20;;;;;;;5.42;87.22;95801.94;5113597;28;20050;-68
2021/12/29 05:31:49;;;;;;;22.02;6.68;;;;;;;5.40;87.53;95802.91;5113449;28;20529;-62
2021/12/29 05:34:15;;;;;;;30.30;6.10;;;;;;;5.41;87.28;95797.66;5113434;28;20023;-71
2021/12/29 05:36:41;;;;;;;29.27;6.55;;;;;;;5.40;87.50;95801.16;5113466;28;20122;-68
2021/12/29 05:39:08;;;;;;;17.40;5.90;;;;;;;5.34;87.55;95790.97;5113576;28;20019;-68
2021/12/29 05:41:33;;;;;;;20.95;6.72;;;;;;;5.40;87.46;95797.72;5113412;28;20496;-65
2021/12/29 05:43:59;;;;;;;31.45;6.15;;;;;;;5.45;87.44;95798.44;5113418;28;20102;-66
2021/12/29 05:46:25;;;;;;;30.58;5.60;;;;;;;5.47;87.35;95799.22;5113537;28;20395;-69
2021/12/29 05:48:51;;;;;;;21.45;6.00;;;;;;;5.50;87.36;95803.47;5113336;28;20091;-65
2021/12/29 05:51:16;;;;;;;19.83;6.47;;;;;;;5.50;87.29;95806.91;5113338;28;20466;-67
2021/12/29 05:53:42;;;;;;;35.25;6.97;;;;;;;5.39;87.39;95802.03;5113201;28;20579;-69
2021/12/29 05:56:09;;;;;;;30.02;6.10;;;;;;;5.37;87.68;95809.03;5113198;28;20496;-65
2021/12/29 05:58:37;;;;;;;31.00;6.45;;;;;;;5.42;87.58;95804.53;5113384;28;20031;-66
2021/12/29 06:01:04;;;;;;;44.47;7.13;;;;;;;5.36;87.73;95796.94;5113412;28;20020;-68
2021/12/29 06:03:30;;;;;;;60.65;8.52;;;;;;;5.33;87.83;95798.78;5115378;28;20389;-67
2021/12/29 06:05:55;;;;;;;21.67;6.55;;;;;;;5.34;87.94;95792.69;5117404;28;20020;-67
2021/12/29 06:08:21;;;;;;;60.60;6.90;;;;;;;5.27;88.16;95785.09;5117256;28;20465;-64
2021/12/29 06:10:46;;;;;;;67.70;7.82;;;;;;;5.27;88.59;95795.47;5117241;28;20100;-70
2021/12/29 06:13:13;;;;;;;25.92;5.65;;;;;;;5.24;88.44;95794.72;5117129;28;20020;-65
2021/12/29 06:15:38;;;;;;;44.67;6.60;;;;;;;5.25;88.59;95802.47;5117044;28;20057;-66
2021/12/29 06:18:04;;;;;;;29.17;6.18;;;;;;;5.29;88.58;95813.56;5117008;28;20470;-69
2021/12/29 06:20:30;;;;;;;27.05;6.53;;;;;;;5.35;88.55;95810.81;5117076;28;20393;-67
2021/12/29 06:22:55;;;;;;;24.88;7.00;;;;;;;5.38;88.43;95817.66;5117024;28;20027;-65
2021/12/29 06:25:22;;;;;;;65.68;7.90;;;;;;;5.46;88.14;95820.03;5116814;27;20127;-66
2021/12/29 06:27:48;;;;;;;50.85;7.43;;;;;;;5.52;87.90;95819.84;5116815;28;20061;-65
2021/12/29 06:30:15;;;;;;;44.53;6.45;;;;;;;5.57;87.70;95820.56;5116803;28;20015;-64
2021/12/29 06:32:42;;;;;;;33.00;5.53;;;;;;;5.60;87.68;95825.66;5116727;28;20047;-61
2021/12/29 06:35:10;;;;;;;42.42;6.78;;;;;;;5.49;87.53;95823.41;5116679;28;20024;-66
2021/12/29 06:37:36;;;;;;;93.55;6.18;;;;;;;5.54;87.20;95813.72;5116658;28;20427;-70
2021/12/29 06:40:05;;;;;;;95.50;7.53;;;;;;;5.50;87.55;95814.69;5116698;28;20024;-66
2021/12/29 06:42:31;;;;;;;33.13;4.15;;;;;;;5.41;87.77;95791.63;5116576;28;20030;-65
2021/12/29 06:44:57;;;;;;;54.78;4.93;;;;;;;5.31;88.36;95783.28;5116445;28;20098;-65
2021/12/29 06:47:24;;;;;;;100.43;5.68;;;;;;;5.31;88.43;95784.13;5116406;28;20377;-67
2021/12/29 06:49:49;;;;;;;96.10;7.35;;;;;;;5.29;88.74;95785.03;5116468;28;20024;-69
2021/12/29 06:52:15;;;;;;;59.22;4.80;;;;;;;5.30;88.99;95791.94;5116427;28;20030;-64
2021/12/29 06:54:41;;;;;;;150.60;7.75;;;;;;;5.38;88.93;95797.75;5116229;28;20027;-67
2021/12/29 06:57:06;;;;;;;56.10;5.13;;;;;;;5.38;88.71;95792.56;5116226;28;20072;-64
2021/12/29 06:59:32;;;;;;;51.17;5.07;;;;;;;5.47;88.63;95799.22;5116311;28;20027;-70
2021/12/29 07:01:58;;;;;;;51.90;4.38;;;;;;;5.49;88.48;95792.25;5116215;28;20469;-67
2021/12/29 07:04:24;;;;;;;28.10;4.40;;;;;;;5.40;88.06;95783.00;5116076;28;20115;-65
2021/12/29 07:06:51;;;;;;;39.35;4.80;;;;;;;5.35;88.27;95789.19;5116061;27;20023;-71
2021/12/29 07:09:17;;;;;;;52.78;4.57;;;;;;;5.33;88.34;95803.97;5116010;28;20074;-64
2021/12/29 07:11:43;;;;;;;32.90;5.30;;;;;;;5.35;88.90;95804.75;5116035;28;20016;-66
2021/12/29 07:14:09;;;;;;;27.95;4.68;;;;;;;5.42;88.70;95814.91;5115379;28;20031;-71
2021/12/29 07:16:37;;;;;;;19.00;5.05;;;;;;;5.49;88.62;95818.19;5115864;28;20099;-70
2021/12/29 07:19:04;;;;;;;21.38;4.88;;;;;;;5.55;88.52;95828.41;5115943;28;20023;-68
2021/12/29 07:21:30;;;;;;;13.85;4.85;;;;;;;5.62;88.14;95823.88;5115777;28;20118;-62
2021/12/29 07:23:55;;;;;;;11.90;4.85;;;;;;;5.62;88.24;95823.88;5115493;28;20513;-67
2021/12/29 07:26:22;;;;;;;15.45;5.47;;;;;;;5.54;88.34;95829.28;5114528;28;20028;-64
2021/12/29 07:28:48;;;;;;;13.25;5.63;;;;;;;5.57;88.04;95830.97;5115739;28;20020;-65
2021/12/29 07:31:14;;;;;;;8.75;4.18;;;;;;;5.62;87.98;95828.19;5115652;28;20031;-67
2021/12/29 07:33:40;;;;;;;13.48;4.45;;;;;;;5.59;88.29;95829.16;5115520;28;20035;-67
2021/12/29 07:36:05;;;;;;;6.90;3.95;;;;;;;5.66;88.06;95827.22;5115655;28;20022;-67
2021/12/29 07:38:31;;;;;;;6.70;4.47;;;;;;;5.71;88.16;95833.13;5115475;28;20382;-64
2021/12/29 07:40:57;;;;;;;8.80;4.30;;;;;;;5.75;87.68;95828.69;5115388;28;20430;-65
2021/12/29 07:43:23;;;;;;;4.38;3.03;;;;;;;5.78;87.50;95831.22;5115472;27;20489;-67
2021/12/29 07:45:50;;;;;;;5.05;3.33;;;;;;;5.81;87.34;95825.94;5115372;28;20393;-65
2021/12/29 07:48:18;;;;;;;3.47;2.80;;;;;;;5.88;87.11;95830.03;5115305;28;20110;-69
2021/12/29 07:50:44;;;;;;;3.55;3.00;;;;;;;5.93;86.78;95830.72;5115275;28;20503;-66
2021/12/29 07:53:12;;;;;;;4.45;3.45;;;;;;;6.01;87.11;95829.63;5115185;28;20019;-69
2021/12/29 07:55:38;;;;;;;4.28;2.72;;;;;;;6.04;86.31;95826.97;5115315;28;20058;-69
2021/12/29 07:58:15;;;;;;;5.00;2.90;;;;;;;5.96;85.44;95819.38;5115186;28;20043;-68
2021/12/29 08:00:45;;;;;;;2.65;2.45;;;;;;;5.94;85.76;95824.63;5115122;28;20465;-70
2021/12/29 08:03:17;;;;;;;3.28;2.70;;;;;;;5.94;85.91;95827.22;5115142;28;20051;-63
2021/12/29 08:05:46;;;;;;;2.70;2.40;;;;;;;5.87;86.04;95828.31;5114962;28;20027;-67
2021/12/29 08:08:12;;;;;;;2.65;1.90;;;;;;;5.88;85.88;95823.97;5114969;28;20031;-67
2021/12/29 08:10:38;;;;;;;2.58;2.28;;;;;;;5.90;86.40;95820.44;5114963;28;20374;-67
2021/12/29 08:13:05;;;;;;;5.15;2.40;;;;;;;5.86;86.54;95820.56;5114963;28;20149;-64
2021/12/29 08:15:33;;;;;;;2.95;2.45;;;;;;;5.87;86.59;95806.72;5114887;28;20027;-67
2021/12/29 08:18:09;;;;;;;2.60;2.08;;;;;;;5.85;86.72;95814.53;5114721;28;20022;-70
2021/12/29 08:20:38;;;;;;;3.08;2.45;;;;;;;5.84;86.79;95820.63;5114714;28;20023;-67
2021/12/29 08:23:06;;;;;;;3.30;2.60;;;;;;;5.75;86.59;95824.34;5114736;28;20023;-67
2021/12/29 08:25:32;;;;;;;3.05;2.53;;;;;;;5.78;86.64;95820.81;5114175;28;20047;-63
2021/12/29 08:27:57;;;;;;;3.38;2.88;;;;;;;5.78;86.98;95826.84;5113837;28;20022;-64
2021/12/29 08:30:23;;;;;;;4.20;2.75;;;;;;;5.75;86.63;95820.91;5114580;28;20023;-66
2021/12/29 08:32:49;;;;;;;4.47;2.92;;;;;;;5.77;86.15;95825.16;5114477;28;20024;-67
2021/12/29 08:35:15;;;;;;;3.53;2.58;;;;;;;5.75;86.27;95819.16;5114241;28;20024;-67
2021/12/29 08:37:42;;;;;;;2.80;2.50;;;;;;;5.66;86.71;95811.66;5114445;28;20077;-61
2021/12/29 08:40:09;;;;;;;4.32;2.80;;;;;;;5.70;86.97;95802.88;5114439;28;20051;-67
2021/12/29 08:42:37;;;;;;;3.83;3.40;;;;;;;5.72;87.03;95802.84;5114346;28;20016;-63
2021/12/29 08:45:05;;;;;;;3.67;2.90;;;;;;;5.75;86.99;95805.34;5114156;28;20020;-67
2021/12/29 08:47:31;;;;;;;3.63;2.40;;;;;;;5.71;86.76;95795.94;5114289;28;20027;-69
2021/12/29 08:49:57;;;;;;;3.92;2.90;;;;;;;5.76;86.95;95794.06;5114164;28;20023;-64
2021/12/29 08:52:23;;;;;;;3.53;2.90;;;;;;;5.82;86.93;95789.50;5114146;28;20596;-64
2021/12/29 08:54:49;;;;;;;2.63;2.42;;;;;;;5.94;87.21;95785.69;5113994;28;20111;-62
2021/12/29 08:57:15;;;;;;;5.25;2.83;;;;;;;6.04;86.88;95791.47;5114024;28;20024;-68
2021/12/29 08:59:41;;;;;;;3.40;2.50;;;;;;;6.07;86.55;95790.53;5114216;28;20091;-62
2021/12/29 09:02:08;;;;;;;3.42;2.90;;;;;;;6.14;86.32;95791.19;5114028;28;20416;-63
2021/12/29 09:04:36;;;;;;;3.63;2.55;;;;;;;6.14;85.54;95793.78;5113995;28;20024;-61
2021/12/29 09:07:02;;;;;;;3.97;2.45;;;;;;;6.15;85.83;95798.94;5114022;28;20346;-66
2021/12/29 09:09:28;;;;;;;3.22;2.35;;;;;;;6.21;85.33;95800.47;5113951;28;20030;-67
2021/12/29 09:11:54;;;;;;;3.72;2.58;;;;;;;6.16;84.81;95800.63;5113859;28;20032;-69
2021/12/29 09:14:21;;;;;;;3.00;2.20;;;;;;;6.14;84.64;95793.78;5113634;28;20498;-66
2021/12/29 09:16:52;;;;;;;1.80;1.67;;;;;;;6.11;85.30;95793.88;5113866;28;20034;-62
2021/12/29 09:19:18;;;;;;;2.33;1.70;;;;;;;6.04;84.91;95791.47;5113677;27;20102;-65
2021/12/29 09:21:51;;;;;;;1.67;1.40;;;;;;;6.02;84.98;95785.44;5113665;28;20496;-69
2021/12/29 09:24:23;;;;;;;1.38;1.27;;;;;;;5.94;85.45;95777.88;5113443;28;20051;-67
2021/12/29 09:26:50;;;;;;;2.15;1.63;;;;;;;5.94;85.86;95775.28;5113715;28;20374;-66
2021/12/29 09:29:15;;;;;;;1.38;1.20;;;;;;;6.02;85.76;95775.06;5113701;28;20046;-67
2021/12/29 09:31:44;;;;;;;1.05;1.00;;;;;;;6.04;85.23;95772.44;5113511;28;20028;-64
2021/12/29 09:34:13;;;;;;;1.55;1.20;;;;;;;6.00;84.84;95773.41;5113508;28;20468;-68
2021/12/29 09:36:39;;;;;;;1.65;1.33;;;;;;;6.01;85.15;95762.97;5112297;28;20020;-70
2021/12/29 09:39:05;;;;;;;1.48;1.35;;;;;;;5.96;85.46;95761.44;5119077;28;20100;-68
2021/12/29 09:41:33;;;;;;;2.92;1.70;;;;;;;6.00;85.94;95761.28;5120321;27;20102;-70
2021/12/29 09:44:03;;;;;;;3.03;1.83;;;;;;;6.03;85.91;95755.16;5120292;27;20384;-68
2021/12/29 09:46:29;;;;;;;3.47;2.22;;;;;;;6.11;86.30;95749.75;5120337;27;20028;-67
2021/12/29 09:48:55;;;;;;;3.50;2.70;;;;;;;6.14;85.09;95750.47;5120196;27;20024;-69
2021/12/29 09:51:21;;;;;;;2.95;2.70;;;;;;;6.12;85.19;95748.84;5120291;27;20022;-67
2021/12/29 09:53:47;;;;;;;5.00;3.42;;;;;;;6.15;85.57;95746.13;5120312;27;20073;-62
2021/12/29 09:56:13;;;;;;;4.22;3.83;;;;;;;6.15;85.65;95740.94;5120166;27;20373;-67
2021/12/29 09:58:39;;;;;;;4.25;3.70;;;;;;;6.18;85.21;95743.44;5120189;27;20362;-64
2021/12/29 10:01:07;;;;;;;4.57;3.28;;;;;;;6.14;84.74;95726.28;5118944;28;20039;-65
2021/12/29 10:03:34;;;;;;;3.47;3.17;;;;;;;6.13;84.87;95721.97;5120143;27;20016;-68
2021/12/29 10:06:03;;;;;;;7.35;3.50;;;;;;;6.10;84.82;95722.91;5120040;27;20027;-65
2021/12/29 10:08:36;;;;;;;4.40;3.47;;;;;;;6.12;85.37;95715.94;5120065;27;20020;-62
2021/12/29 10:11:11;;;;;;;5.65;3.88;;;;;;;6.12;85.71;95722.88;5119938;27;20032;-66
2021/12/29 10:13:41;;;;;;;4.97;3.20;;;;;;;6.12;86.30;95710.75;5119936;27;20051;-68
2021/12/29 10:16:20;;;;;;;4.95;3.42;;;;;;;6.16;86.34;95712.31;5119967;27;20164;-69
2021/12/29 10:18:53;;;;;;;4.25;2.90;;;;;;;6.24;86.31;95711.22;5119959;27;20114;-67
2021/12/29 10:21:22;;;;;;;3.15;2.85;;;;;;;6.26;86.34;95714.63;5120150;27;20034;-69
2021/12/29 10:23:50;;;;;;;4.55;3.00;;;;;;;6.30;86.05;95714.44;5119668;27;20047;-66
2021/12/29 10:26:23;;;;;;;4.93;2.92;;;;;;;6.36;85.67;95715.16;5119873;27;20020;-67
2021/12/29 10:28:52;;;;;;;3.00;2.50;;;;;;;6.41;84.64;95711.47;5120017;27;20023;-67
2021/12/29 10:31:22;;;;;;;3.30;2.45;;;;;;;6.45;84.45;95707.88;5119983;27;20076;-64
2021/12/29 10:33:56;;;;;;;3.13;2.55;;;;;;;6.51;84.40;95712.03;5119797;27;20031;-70
2021/12/29 10:36:27;;;;;;;2.88;2.30;;;;;;;6.58;84.46;95704.84;5119927;27;20034;-65
2021/12/29 10:38:56;;;;;;;2.28;2.00;;;;;;;6.65;84.12;95705.50;5119893;27;20465;-65
2021/12/29 10:41:22;;;;;;;2.30;1.92;;;;;;;6.66;83.93;95694.19;5119923;27;20057;-65
2021/12/29 10:44:03;;;;;;;3.10;2.40;;;;;;;6.69;84.21;95692.31;5119852;28;20015;-68
2021/12/29 10:46:31;;;;;;;3.00;2.30;;;;;;;6.74;84.20;95686.13;5119782;27;20028;-65
2021/12/29 10:49:00;;;;;;;3.00;1.90;;;;;;;6.79;83.82;95689.38;5118506;27;20027;-66
2021/12/29 10:51:30;;;;;;;4.43;1.95;;;;;;;6.84;83.76;95684.88;5116164;28;20035;-66
2021/12/29 10:54:08;;;;;;;3.35;2.35;;;;;;;6.90;83.92;95686.41;5116426;28;20115;-61
2021/12/29 10:56:34;;;;;;;3.25;2.08;;;;;;;6.91;83.61;95681.13;5116480;28;20031;-63
2021/12/29 10:59:12;;;;;;;3.58;1.85;;;;;;;6.93;83.48;95676.72;5116359;28;20031;-64
2021/12/29 11:01:38;;;;;;;1.60;1.50;;;;;;;6.94;82.97;95683.63;5116276;28;20015;-70
2021/12/29 11:04:04;;;;;;;1.92;1.80;;;;;;;7.00;82.91;95672.16;5116229;28;20068;-70
2021/12/29 11:06:29;;;;;;;3.40;1.98;;;;;;;7.01;83.22;95663.44;5116209;28;20043;-67
2021/12/29 11:08:58;;;;;;;2.63;1.90;;;;;;;7.03;83.12;95659.03;5116164;28;20470;-65
2021/12/29 11:11:33;;;;;;;2.83;2.00;;;;;;;7.05;82.74;95659.78;5116094;28;20035;-65
2021/12/29 11:14:22;;;;;;;1.70;1.60;;;;;;;7.07;83.12;95649.34;5116074;28;20034;-64
2021/12/29 11:17:00;;;;;;;2.88;1.60;;;;;;;7.03;83.21;95646.03;5116019;28;20076;-64
2021/12/29 11:19:26;;;;;;;2.03;1.80;;;;;;;7.03;82.73;95647.78;5116091;28;20024;-69
2021/12/29 11:22:03;;;;;;;4.40;3.15;;;;;;;7.00;82.78;95642.69;5115863;28;20059;-63
2021/12/29 11:24:29;;;;;;;3.80;3.03;;;;;;;7.01;83.17;95640.03;5115761;28;20062;-70
2021/12/29 11:26:59;;;;;;;2.60;2.35;;;;;;;7.01;83.05;95637.41;5115805;28;20102;-63
2021/12/29 11:29:25;;;;;;;4.93;3.38;;;;;;;6.95;82.88;95629.84;5115818;28;20034;-64
2021/12/29 11:32:02;;;;;;;2.80;2.53;;;;;;;6.83;82.72;95621.63;5115730;28;20051;-67
2021/12/29 11:34:30;;;;;;;4.68;2.40;;;;;;;6.76;83.07;95624.50;5114649;28;20107;-65
2021/12/29 11:37:06;;;;;;;3.28;2.20;;;;;;;6.74;83.71;95621.97;5115638;28;20381;-65
2021/12/29 11:39:35;;;;;;;2.88;2.50;;;;;;;6.76;84.22;95614.97;5115547;28;20028;-68
2021/12/29 11:42:02;;;;;;;3.38;2.40;;;;;;;6.82;83.89;95619.09;5115680;28;20072;-67
2021/12/29 11:44:29;;;;;;;3.72;2.92;;;;;;;6.80;84.16;95616.53;5115559;28;20048;-66
2021/12/29 11:46:55;;;;;;;4.63;3.13;;;;;;;6.80;84.10;95615.69;5115328;28;20022;-67